Joint Base McGuire-Dix-Lakehurst, New Jersey
Current Conditions -  °F | °C
As of 12:09 PM on Friday 28 Nov 2014 (Local Time) from KWRI Reporting Station
Broken Clouds Broken Clouds  
Wind Chill: 29°   Ceiling: 4100
Heat Index: 37°   Visibility: 10mi
Dew Point: 19°   Wind: 15mph
Humidity: 48%   Direction: 310°NW
Pressure: 30.16"   Gusts: 23mph
Location:  40.01°N, 74.52°W
Report Text: KWRI 281709Z AUTO 31013G20KT 10SM BKN041 03/M07 A3016 RMK AO2 WSHFT 02
Loading
Personal Weather Stations






























Interactive Weather Map New forecast layout! Learn more

10-Day Weather Forecast

Advertisements
Track Severe Weather on mobile